Time;durP1;ratioP1;P1;durP2;ratioP2;P2;SDS_P1;SDS_P2;PMS_P1;PMS_P2;Temp;Humidity;BMP_temperature;BMP_pressure;BME280_temperature;BME280_humidity;BME280_pressure;Samples;Min_cycle;Max_cycle;Signal;HPM_P1;HPM_P2
2023/04/06 00:00:35;;;;;;;;;15.67;14.67;23.50;31.70;;;;;;111464;1243;45506;-58
2023/04/06 00:03:15;;;;;;;;;16.00;15.00;23.50;32.70;;;;;;111416;1242;55051;-59
2023/04/06 00:05:42;;;;;;;;;15.75;14.00;23.50;32.10;;;;;;111479;1237;54902;-60
2023/04/06 00:08:09;;;;;;;;;14.25;13.00;23.40;32.10;;;;;;111513;1238;49305;-59
2023/04/06 00:10:36;;;;;;;;;17.75;15.00;23.40;32.20;;;;;;111416;1243;49386;-59
2023/04/06 00:13:03;;;;;;;;;13.50;12.00;23.40;32.30;;;;;;111430;1237;46105;-58
2023/04/06 00:15:30;;;;;;;;;16.00;15.00;23.30;32.10;;;;;;111428;1237;55931;-58
2023/04/06 00:17:57;;;;;;;;;15.00;14.00;23.30;32.20;;;;;;111483;1238;53480;-58
2023/04/06 00:20:25;;;;;;;;;16.75;14.75;23.30;32.20;;;;;;111403;1242;49196;-58
2023/04/06 00:22:52;;;;;;;;;16.25;14.75;23.20;32.20;;;;;;111432;1243;48750;-59
2023/04/06 00:25:19;;;;;;;;;18.50;14.75;23.20;32.30;;;;;;111444;1242;45719;-58
2023/04/06 00:27:46;;;;;;;;;15.75;14.00;23.10;32.20;;;;;;111477;1242;55330;-58
2023/04/06 00:30:13;;;;;;;;;15.50;12.75;23.10;32.30;;;;;;111495;1242;54086;-58
2023/04/06 00:32:40;;;;;;;;;15.00;13.50;23.10;32.40;;;;;;111450;1243;49778;-58
2023/04/06 00:35:07;;;;;;;;;16.00;14.00;23.00;32.10;;;;;;111381;1239;49392;-60
2023/04/06 00:37:37;;;;;;;;;15.25;13.75;23.00;32.50;;;;;;111381;1242;46220;-57
2023/04/06 00:40:05;;;;;;;;;12.75;11.50;22.90;32.50;;;;;;111425;1239;55819;-59
2023/04/06 00:42:32;;;;;;;;;14.00;13.00;22.90;32.50;;;;;;111201;1240;54006;-58
2023/04/06 00:45:01;;;;;;;;;15.00;13.75;22.90;32.50;;;;;;111325;1238;49633;-58
2023/04/06 00:47:28;;;;;;;;;13.50;12.75;22.80;32.70;;;;;;111325;1243;49756;-58
2023/04/06 00:49:56;;;;;;;;;15.50;13.00;22.80;32.60;;;;;;111418;1238;45863;-59
2023/04/06 00:52:23;;;;;;;;;13.75;12.75;22.80;32.60;;;;;;111509;1237;56217;-58
2023/04/06 00:54:50;;;;;;;;;15.33;13.67;22.70;32.60;;;;;;111452;1237;54041;-59
2023/04/06 00:57:18;;;;;;;;;15.00;14.00;22.70;32.50;;;;;;111451;1242;48980;-58
2023/04/06 00:59:45;;;;;;;;;14.00;11.00;22.70;32.70;;;;;;111419;1238;49586;-58
2023/04/06 01:02:12;;;;;;;;;17.00;13.00;22.60;32.60;;;;;;111456;1240;46115;-58
2023/04/06 01:04:40;;;;;;;;;13.00;12.00;22.60;32.70;;;;;;111255;1239;55857;-59
2023/04/06 01:07:07;;;;;;;;;15.33;14.33;22.50;32.80;;;;;;111500;1238;54757;-58
2023/04/06 01:09:34;;;;;;;;;15.50;13.00;22.50;32.70;;;;;;111558;1242;49178;-58
2023/04/06 01:12:02;;;;;;;;;15.33;14.33;22.50;32.90;;;;;;111458;1238;49093;-59
2023/04/06 01:14:29;;;;;;;;;16.00;13.75;22.40;32.70;;;;;;111377;1242;46596;-58
2023/04/06 01:16:58;;;;;;;;;12.33;11.00;22.40;32.80;;;;;;111206;1243;56707;-59
2023/04/06 01:19:25;;;;;;;;;14.33;13.33;22.40;32.80;;;;;;111410;1243;54068;-59
2023/04/06 01:21:53;;;;;;;;;15.75;14.75;22.30;32.80;;;;;;111411;1237;50059;-59
2023/04/06 01:24:20;;;;;;;;;15.25;14.00;22.30;32.80;;;;;;111398;1243;48830;-59
2023/04/06 01:26:47;;;;;;;;;16.00;13.33;22.30;32.90;;;;;;111500;1240;46135;-59
2023/04/06 01:29:15;;;;;;;;;14.75;12.00;22.30;32.80;;;;;;111452;1243;56532;-59
2023/04/06 01:31:42;;;;;;;;;17.00;14.00;22.20;32.80;;;;;;111457;1237;53251;-58
2023/04/06 01:34:09;;;;;;;;;14.50;13.00;22.20;32.80;;;;;;111467;1237;48990;-58
2023/04/06 01:36:36;;;;;;;;;13.75;12.75;22.20;32.90;;;;;;111451;1242;50100;-58
2023/04/06 01:39:03;;;;;;;;;14.67;12.67;22.20;32.90;;;;;;111477;1237;45984;-58
2023/04/06 01:41:30;;;;;;;;;16.00;12.00;22.10;32.80;;;;;;111509;1243;56599;-58
2023/04/06 01:43:57;;;;;;;;;15.00;13.75;22.10;32.80;;;;;;111330;1238;54891;-59
2023/04/06 01:46:24;;;;;;;;;13.75;12.00;22.10;32.90;;;;;;111401;1244;49369;-58
2023/04/06 01:48:51;;;;;;;;;14.00;12.50;22.10;33.10;;;;;;111448;1242;49011;-60
2023/04/06 01:51:18;;;;;;;;;13.75;11.75;22.00;32.80;;;;;;111488;1241;45392;-59
2023/04/06 01:53:45;;;;;;;;;17.75;14.50;22.00;32.90;;;;;;111479;1237;55635;-58
2023/04/06 01:56:12;;;;;;;;;18.00;13.50;22.00;32.90;;;;;;111442;1238;54007;-58
2023/04/06 01:58:39;;;;;;;;;14.00;12.25;22.00;32.90;;;;;;111371;1238;49110;-59
2023/04/06 02:01:07;;;;;;;;;17.25;13.00;21.90;32.90;;;;;;111478;1237;49495;-59
2023/04/06 02:03:33;;;;;;;;;15.00;12.50;21.90;32.90;;;;;;111483;1237;46009;-58
2023/04/06 02:06:00;;;;;;;;;15.25;13.00;21.90;33.00;;;;;;111519;1242;55543;-58
2023/04/06 02:08:27;;;;;;;;;13.25;12.00;21.90;33.00;;;;;;111428;1242;54301;-58
2023/04/06 02:10:54;;;;;;;;;14.00;12.50;21.80;32.90;;;;;;111426;1238;50369;-58
2023/04/06 02:13:21;;;;;;;;;14.25;13.00;21.90;33.10;;;;;;111552;1242;49792;-59
2023/04/06 02:15:48;;;;;;;;;14.00;13.00;21.80;32.90;;;;;;111453;1237;46086;-61
2023/04/06 02:18:17;;;;;;;;;12.25;11.25;21.80;32.90;;;;;;111472;1243;57511;-60
2023/04/06 02:20:45;;;;;;;;;14.00;12.00;21.80;33.00;;;;;;111459;1244;53668;-59
2023/04/06 02:23:12;;;;;;;;;13.00;11.67;21.80;33.20;;;;;;111445;1243;50909;-58
2023/04/06 02:25:40;;;;;;;;;12.00;11.00;21.70;32.90;;;;;;111522;1243;49103;-59
2023/04/06 02:28:07;;;;;;;;;16.75;15.00;21.70;33.00;;;;;;111446;1237;45318;-60
2023/04/06 02:30:34;;;;;;;;;13.00;10.75;21.70;33.00;;;;;;111461;1237;54910;-60
2023/04/06 02:33:01;;;;;;;;;15.00;12.25;21.70;33.20;;;;;;111584;1242;53476;-60
2023/04/06 02:35:29;;;;;;;;;12.50;10.25;21.70;33.00;;;;;;111483;1243;48994;-59
2023/04/06 02:37:56;;;;;;;;;12.00;11.00;21.60;33.10;;;;;;111448;1237;50548;-58
2023/04/06 02:40:23;;;;;;;;;14.00;12.25;21.60;33.00;;;;;;111493;1247;45879;-59
2023/04/06 02:42:50;;;;;;;;;12.00;11.00;21.60;33.20;;;;;;111394;1239;55238;-58
2023/04/06 02:45:17;;;;;;;;;14.00;12.25;21.60;33.20;;;;;;111449;1238;53335;-59
2023/04/06 02:47:45;;;;;;;;;14.25;12.75;21.60;33.00;;;;;;111510;1243;50553;-58
2023/04/06 02:50:12;;;;;;;;;13.00;12.00;21.50;33.00;;;;;;111390;1242;49548;-59
2023/04/06 02:52:38;;;;;;;;;13.50;11.25;21.60;33.10;;;;;;111423;1238;46743;-59
2023/04/06 02:55:07;;;;;;;;;15.75;12.75;21.50;32.90;;;;;;111372;1237;56146;-59
2023/04/06 02:57:34;;;;;;;;;12.67;11.00;21.50;33.00;;;;;;111457;1242;53866;-59
2023/04/06 03:00:01;;;;;;;;;15.50;12.75;21.50;33.00;;;;;;111462;1242;50226;-59
2023/04/06 03:02:28;;;;;;;;;13.00;11.00;21.50;33.00;;;;;;111400;1243;49264;-59
2023/04/06 03:04:55;;;;;;;;;14.75;13.00;21.40;33.40;;;;;;111346;1238;46612;-59
2023/04/06 03:07:22;;;;;;;;;14.00;12.00;21.40;33.00;;;;;;111420;1243;55320;-58
2023/04/06 03:09:49;;;;;;;;;12.25;11.00;21.50;33.20;;;;;;111456;1243;54578;-59
2023/04/06 03:12:16;;;;;;;;;14.00;11.75;21.60;33.20;;;;;;111567;1242;49183;-58
2023/04/06 03:14:43;;;;;;;;;12.00;10.25;21.70;33.20;;;;;;111501;1242;49956;-59
2023/04/06 03:17:10;;;;;;;;;17.25;14.00;21.80;33.20;;;;;;111415;1238;45687;-59
2023/04/06 03:19:37;;;;;;;;;13.00;12.00;21.90;33.30;;;;;;111404;1242;55885;-60
2023/04/06 03:22:04;;;;;;;;;13.25;11.00;22.00;33.30;;;;;;111447;1238;53410;-59
2023/04/06 03:24:31;;;;;;;;;11.00;9.75;22.10;33.50;;;;;;111383;1243;49180;-59
2023/04/06 03:26:58;;;;;;;;;11.67;10.67;22.20;33.30;;;;;;111463;1243;49080;-59
2023/04/06 03:29:25;;;;;;;;;16.33;13.33;22.30;33.40;;;;;;111457;1243;45523;-59
2023/04/06 03:31:52;;;;;;;;;12.00;10.75;22.50;33.50;;;;;;111454;1238;54923;-59
2023/04/06 03:34:20;;;;;;;;;13.75;11.75;22.60;33.40;;;;;;111498;1237;54444;-59
2023/04/06 03:36:47;;;;;;;;;11.00;10.00;22.70;33.40;;;;;;111400;1239;49373;-60
2023/04/06 03:39:14;;;;;;;;;14.00;11.00;22.80;33.40;;;;;;111498;1237;49590;-59
2023/04/06 03:41:41;;;;;;;;;16.25;11.75;23.00;33.40;;;;;;111431;1237;46103;-59
2023/04/06 03:44:08;;;;;;;;;13.00;11.00;23.10;33.40;;;;;;111434;1237;56234;-60
2023/04/06 03:46:35;;;;;;;;;12.50;9.50;23.20;33.40;;;;;;111461;1243;53795;-59
2023/04/06 03:49:02;;;;;;;;;12.50;11.00;23.40;33.40;;;;;;111463;1243;50636;-61
2023/04/06 03:51:29;;;;;;;;;13.75;13.00;23.50;33.40;;;;;;111492;1244;49942;-59
2023/04/06 03:53:56;;;;;;;;;11.25;10.50;23.60;33.30;;;;;;111403;1238;45770;-59
2023/04/06 03:56:23;;;;;;;;;12.00;10.50;23.70;33.30;;;;;;111393;1242;55108;-59
2023/04/06 03:58:51;;;;;;;;;12.50;11.25;23.80;33.30;;;;;;111458;1243;53904;-59
2023/04/06 04:01:18;;;;;;;;;11.75;9.00;24.00;33.40;;;;;;111440;1238;49827;-60
2023/04/06 04:03:45;;;;;;;;;11.00;10.00;24.10;33.50;;;;;;111424;1238;49272;-58
2023/04/06 04:06:12;;;;;;;;;13.33;11.67;24.20;33.20;;;;;;111378;1242;46079;-59
2023/04/06 04:08:39;;;;;;;;;11.25;10.25;24.30;33.20;;;;;;111413;1237;57445;-59
2023/04/06 04:11:06;;;;;;;;;12.00;9.75;24.40;33.20;;;;;;111437;1243;53397;-59
2023/04/06 04:13:33;;;;;;;;;14.33;13.33;24.60;33.20;;;;;;111421;1243;50042;-61
2023/04/06 04:16:00;;;;;;;;;10.75;9.75;24.70;33.10;;;;;;111509;1237;49686;-58
2023/04/06 04:18:27;;;;;;;;;13.50;12.00;24.80;33.20;;;;;;111528;1237;45733;-59
2023/04/06 04:20:54;;;;;;;;;11.00;10.00;24.90;33.20;;;;;;111231;1242;56120;-59
2023/04/06 04:23:21;;;;;;;;;10.67;9.67;25.00;33.00;;;;;;111469;1238;54077;-59
2023/04/06 04:25:48;;;;;;;;;10.67;10.00;25.20;33.00;;;;;;111310;1239;49127;-63
2023/04/06 04:28:15;;;;;;;;;12.25;11.25;25.20;33.30;;;;;;111226;1238;49779;-58
2023/04/06 04:30:42;;;;;;;;;11.25;10.00;25.40;32.90;;;;;;111274;1242;45844;-60
2023/04/06 04:33:09;;;;;;;;;11.75;10.50;25.50;32.80;;;;;;111309;1237;55307;-58
2023/04/06 04:35:36;;;;;;;;;10.00;9.00;25.60;32.70;;;;;;111459;1238;54639;-62
2023/04/06 04:38:03;;;;;;;;;11.50;10.50;25.70;32.70;;;;;;111183;1243;49235;-59
2023/04/06 04:40:30;;;;;;;;;12.33;11.00;25.80;32.70;;;;;;111392;1237;50266;-59
2023/04/06 04:42:57;;;;;;;;;12.00;9.50;25.90;32.60;;;;;;111360;1237;46012;-58
2023/04/06 04:45:25;;;;;;;;;12.00;10.00;25.90;32.50;;;;;;111246;1240;56058;-60
2023/04/06 04:47:52;;;;;;;;;12.00;11.00;26.00;33.10;;;;;;111197;1238;54657;-61
2023/04/06 04:50:19;;;;;;;;;12.00;11.25;26.10;33.80;;;;;;111266;1240;49333;-60
2023/04/06 04:52:46;;;;;;;;;13.67;11.00;26.10;33.60;;;;;;111248;1238;50337;-59
2023/04/06 04:55:13;;;;;;;;;12.75;11.75;26.20;33.40;;;;;;111350;1237;45739;-60
2023/04/06 04:57:40;;;;;;;;;12.75;10.75;26.20;33.20;;;;;;111110;1243;55872;-60
2023/04/06 05:00:08;;;;;;;;;11.00;9.75;26.30;33.70;;;;;;111177;1239;53974;-62
2023/04/06 05:02:35;;;;;;;;;12.00;11.00;26.40;33.30;;;;;;111265;1238;49731;-59
2023/04/06 05:05:03;;;;;;;;;16.00;11.50;26.40;33.10;;;;;;111476;1242;49584;-60
2023/04/06 05:07:30;;;;;;;;;16.25;11.75;26.50;32.60;;;;;;111246;1237;46326;-59
2023/04/06 05:09:57;;;;;;;;;11.75;10.50;26.50;33.10;;;;;;111324;1243;55456;-59
2023/04/06 05:12:24;;;;;;;;;11.00;10.00;26.50;32.80;;;;;;111468;1238;54854;-59
2023/04/06 05:14:51;;;;;;;;;13.00;10.75;26.60;32.70;;;;;;111387;1238;49847;-60
2023/04/06 05:17:19;;;;;;;;;11.00;9.75;26.60;32.60;;;;;;111231;1238;50207;-60
2023/04/06 05:19:46;;;;;;;;;13.50;12.00;26.60;32.50;;;;;;111366;1237;45559;-60
2023/04/06 05:22:15;;;;;;;;;13.25;10.75;26.70;32.50;;;;;;111384;1238;55254;-60
2023/04/06 05:24:43;;;;;;;;;13.00;11.75;26.70;32.40;;;;;;111387;1238;53294;-59
2023/04/06 05:27:10;;;;;;;;;11.50;10.00;26.70;32.30;;;;;;111386;1238;48920;-58
2023/04/06 05:29:37;;;;;;;;;12.00;10.00;26.70;32.40;;;;;;111064;1243;49057;-61
2023/04/06 05:32:05;;;;;;;;;26.75;22.50;26.70;32.10;;;;;;111298;1242;46544;-61
2023/04/06 05:34:32;;;;;;;;;21.67;20.00;26.70;35.00;;;;;;111469;1242;55136;-61
2023/04/06 05:36:59;;;;;;;;;24.00;20.25;26.70;36.00;;;;;;111423;1237;54729;-62
2023/04/06 05:39:26;;;;;;;;;26.25;21.00;26.60;36.20;;;;;;111382;1237;49753;-62
2023/04/06 05:41:53;;;;;;;;;18.25;16.75;26.50;36.50;;;;;;111273;1243;49308;-62
2023/04/06 05:44:20;;;;;;;;;20.00;17.75;26.30;36.50;;;;;;111265;1237;46124;-61
2023/04/06 05:46:47;;;;;;;;;20.67;19.00;26.20;36.80;;;;;;111337;1242;55666;-61
2023/04/06 05:49:15;;;;;;;;;27.25;22.75;26.10;36.80;;;;;;111447;1238;54107;-61
2023/04/06 05:51:42;;;;;;;;;17.25;16.00;26.10;37.20;;;;;;111410;1238;49462;-60
2023/04/06 05:54:09;;;;;;;;;21.75;17.75;26.00;36.70;;;;;;111342;1242;50375;-61
2023/04/06 05:56:36;;;;;;;;;18.67;17.33;26.00;36.70;;;;;;111504;1243;45680;-62
2023/04/06 05:59:03;;;;;;;;;20.25;16.25;25.90;36.80;;;;;;111577;1243;55798;-62
2023/04/06 06:01:30;;;;;;;;;22.00;19.00;25.90;37.20;;;;;;111402;1238;54133;-61
2023/04/06 06:03:57;;;;;;;;;21.00;15.00;25.80;37.10;;;;;;111339;1243;48891;-60
2023/04/06 06:06:24;;;;;;;;;19.00;15.00;25.80;36.50;;;;;;111314;1244;50317;-61
2023/04/06 06:08:52;;;;;;;;;16.50;14.75;25.70;35.80;;;;;;111486;1242;46923;-62
2023/04/06 06:11:19;;;;;;;;;17.00;15.75;25.70;36.10;;;;;;111761;1242;55743;-61
2023/04/06 06:13:46;;;;;;;;;19.00;16.00;25.60;35.50;;;;;;111840;1237;54007;-61
2023/04/06 06:16:13;;;;;;;;;20.33;17.00;25.50;35.30;;;;;;111814;1237;49852;-61
2023/04/06 06:18:40;;;;;;;;;16.50;15.50;25.50;35.30;;;;;;112005;1238;50260;-61
2023/04/06 06:21:07;;;;;;;;;17.25;16.25;25.50;35.10;;;;;;111754;1238;45297;-60
2023/04/06 06:23:34;;;;;;;;;17.00;16.00;25.50;35.10;;;;;;111805;1238;55802;-61
2023/04/06 06:26:01;;;;;;;;;17.33;14.00;25.40;34.40;;;;;;111665;1242;54907;-60
2023/04/06 06:28:28;;;;;;;;;21.33;16.00;25.40;34.90;;;;;;111576;1238;49582;-62
2023/04/06 06:30:55;;;;;;;;;18.67;15.00;25.30;34.50;;;;;;111517;1242;49217;-61
2023/04/06 06:33:22;;;;;;;;;18.25;15.50;25.30;35.00;;;;;;111477;1238;45593;-61
2023/04/06 06:35:51;;;;;;;;;17.67;14.33;25.20;34.90;;;;;;111479;1238;54972;-61
2023/04/06 06:38:18;;;;;;;;;15.75;14.25;25.20;34.80;;;;;;111250;1243;54575;-63
2023/04/06 06:40:46;;;;;;;;;19.00;15.50;25.10;35.60;;;;;;111441;1237;49958;-61
2023/04/06 06:43:12;;;;;;;;;19.00;16.00;25.10;35.00;;;;;;111244;1243;49741;-60
2023/04/06 06:45:39;;;;;;;;;14.67;13.67;25.00;34.90;;;;;;111436;1237;45743;-62
2023/04/06 06:48:06;;;;;;;;;15.00;12.25;25.00;35.00;;;;;;111483;1239;55913;-60
2023/04/06 06:50:33;;;;;;;;;16.75;14.25;24.90;35.20;;;;;;111520;1243;54187;-61
2023/04/06 06:53:00;;;;;;;;;15.75;14.75;24.90;35.40;;;;;;111489;1237;49057;-62
2023/04/06 06:55:27;;;;;;;;;19.67;14.33;24.90;36.30;;;;;;111351;1242;50004;-62
2023/04/06 06:57:54;;;;;;;;;15.00;14.00;24.90;36.40;;;;;;111235;1243;46064;-62
2023/04/06 07:00:22;;;;;;;;;19.33;16.00;24.90;37.00;;;;;;111386;1238;55894;-62
2023/04/06 07:02:49;;;;;;;;;20.00;18.00;24.80;35.90;;;;;;111317;1240;54246;-61
2023/04/06 07:05:16;;;;;;;;;19.25;16.50;24.80;36.10;;;;;;111484;1238;50249;-62
2023/04/06 07:07:43;;;;;;;;;17.50;16.50;24.80;36.30;;;;;;111486;1237;49010;-62
2023/04/06 07:10:10;;;;;;;;;16.50;15.00;24.80;36.10;;;;;;111428;1243;45353;-60
2023/04/06 07:12:37;;;;;;;;;14.67;13.67;24.70;36.00;;;;;;111487;1242;55439;-63
2023/04/06 07:15:05;;;;;;;;;19.50;14.75;24.70;35.70;;;;;;111494;1242;54244;-62
2023/04/06 07:17:32;;;;;;;;;16.50;14.25;24.60;35.50;;;;;;111532;1238;49053;-62
2023/04/06 07:19:59;;;;;;;;;17.67;16.67;24.60;35.10;;;;;;111572;1243;49599;-60
2023/04/06 07:22:26;;;;;;;;;13.75;12.75;24.60;34.90;;;;;;110757;1240;627883;-61
2023/04/06 07:24:54;;;;;;;;;14.00;13.00;24.50;34.80;;;;;;111268;1242;55502;-61
2023/04/06 07:27:22;;;;;;;;;15.75;14.75;24.50;34.60;;;;;;111350;1238;54577;-62
2023/04/06 07:29:49;;;;;;;;;17.75;14.50;24.50;34.60;;;;;;111418;1237;49708;-61
2023/04/06 07:32:16;;;;;;;;;14.25;13.00;24.40;34.50;;;;;;111475;1244;49349;-60
2023/04/06 07:34:44;;;;;;;;;15.00;12.00;24.40;34.60;;;;;;111325;1243;45669;-62
2023/04/06 07:37:12;;;;;;;;;16.25;14.75;24.40;34.70;;;;;;111481;1243;55843;-61
2023/04/06 07:39:40;;;;;;;;;14.00;13.00;24.40;35.50;;;;;;111470;1238;54879;-60
2023/04/06 07:42:07;;;;;;;;;15.75;14.75;24.40;35.00;;;;;;111437;1237;50857;-61
2023/04/06 07:44:34;;;;;;;;;15.75;14.75;24.40;34.70;;;;;;111482;1237;49103;-62
2023/04/06 07:47:01;;;;;;;;;15.00;14.00;24.30;34.50;;;;;;111262;1243;45939;-62
2023/04/06 07:49:27;;;;;;;;;15.00;13.33;24.30;34.60;;;;;;111398;1243;56128;-62
2023/04/06 07:51:54;;;;;;;;;21.33;16.00;24.30;34.40;;;;;;111460;1242;54282;-62
2023/04/06 07:54:21;;;;;;;;;18.00;13.67;24.20;34.60;;;;;;111388;1241;49829;-61
2023/04/06 07:56:48;;;;;;;;;20.50;15.00;24.20;35.00;;;;;;111394;1242;49226;-62
2023/04/06 07:59:15;;;;;;;;;15.50;13.75;24.20;34.80;;;;;;111412;1239;45343;-60
2023/04/06 08:01:42;;;;;;;;;13.25;11.50;24.20;34.80;;;;;;111461;1247;56899;-61
2023/04/06 08:04:09;;;;;;;;;16.50;13.25;24.10;34.80;;;;;;111477;1243;53625;-61
2023/04/06 08:06:37;;;;;;;;;14.00;13.00;24.10;34.70;;;;;;111492;1237;50491;-61
2023/04/06 08:09:04;;;;;;;;;14.00;13.00;24.10;34.60;;;;;;111439;1243;49601;-62
2023/04/06 08:11:31;;;;;;;;;15.00;14.00;24.00;34.80;;;;;;111409;1243;45289;-61
2023/04/06 08:13:58;;;;;;;;;15.00;13.75;24.00;34.50;;;;;;111482;1242;56072;-62
2023/04/06 08:16:25;;;;;;;;;13.00;12.00;24.00;34.50;;;;;;111514;1238;53962;-64
2023/04/06 08:18:52;;;;;;;;;16.33;15.33;24.00;35.30;;;;;;111443;1237;48847;-63
2023/04/06 08:21:19;;;;;;;;;15.25;13.50;24.00;35.30;;;;;;111530;1238;49637;-61
2023/04/06 08:23:46;;;;;;;;;13.67;12.67;24.00;35.00;;;;;;111395;1238;45171;-61
2023/04/06 08:26:13;;;;;;;;;13.00;11.33;24.00;35.00;;;;;;111357;1243;55543;-60
2023/04/06 08:28:40;;;;;;;;;15.67;13.00;23.90;34.60;;;;;;111378;1238;54505;-60
2023/04/06 08:31:07;;;;;;;;;13.25;11.50;23.90;34.50;;;;;;111318;1242;50301;-61
2023/04/06 08:33:36;;;;;;;;;13.00;12.00;23.80;34.90;;;;;;111368;1243;49767;-61
2023/04/06 08:36:10;;;;;;;;;16.67;14.33;23.80;35.00;;;;;;111411;1243;45344;-61
2023/04/06 08:38:38;;;;;;;;;14.75;13.00;23.80;34.90;;;;;;111351;1243;55555;-62
2023/04/06 08:41:12;;;;;;;;;15.75;13.00;23.80;35.10;;;;;;111430;1237;53358;-61
2023/04/06 08:44:00;;;;;;;;;16.50;15.75;23.80;34.90;;;;;;111414;1241;49695;-61
2023/04/06 08:46:31;;;;;;;;;18.67;15.33;23.80;34.90;;;;;;111277;1243;49580;-60
2023/04/06 08:49:01;;;;;;;;;18.00;15.33;23.70;34.70;;;;;;111423;1242;45616;-61
2023/04/06 08:51:30;;;;;;;;;14.00;12.50;23.70;34.40;;;;;;111483;1237;55849;-61
2023/04/06 08:53:58;;;;;;;;;13.50;12.50;23.70;34.60;;;;;;111421;1237;54661;-61
2023/04/06 08:56:27;;;;;;;;;15.00;14.00;23.60;34.50;;;;;;111246;1242;50098;-61
2023/04/06 08:58:56;;;;;;;;;15.00;12.25;23.60;34.40;;;;;;111489;1238;49549;-62
2023/04/06 09:01:26;;;;;;;;;15.00;13.75;23.60;34.40;;;;;;111480;1242;45955;-61
2023/04/06 09:04:00;;;;;;;;;13.00;12.00;23.60;34.40;;;;;;111462;1243;56311;-60
2023/04/06 09:06:27;;;;;;;;;14.25;13.00;23.50;34.70;;;;;;111455;1237;55013;-59
2023/04/06 09:08:54;;;;;;;;;14.50;13.00;23.40;34.50;;;;;;111211;1244;49675;-63
2023/04/06 09:11:22;;;;;;;;;14.00;12.00;23.40;34.50;;;;;;111417;1238;49477;-61
2023/04/06 09:13:50;;;;;;;;;16.67;13.00;23.40;34.50;;;;;;111428;1239;45762;-61
2023/04/06 09:16:18;;;;;;;;;15.75;14.75;23.30;34.80;;;;;;111438;1239;55225;-61
2023/04/06 09:18:46;;;;;;;;;15.50;14.00;23.30;34.90;;;;;;111552;1238;54213;-61
2023/04/06 09:21:17;;;;;;;;;13.75;12.75;23.20;34.60;;;;;;111542;1238;49870;-60
2023/04/06 09:23:44;;;;;;;;;15.00;14.00;23.20;34.80;;;;;;111374;1239;50690;-62
2023/04/06 09:26:12;;;;;;;;;15.00;14.00;23.10;34.60;;;;;;111289;1243;45192;-61
2023/04/06 09:28:52;;;;;;;;;14.75;13.50;23.10;34.70;;;;;;111435;1238;55342;-61
2023/04/06 09:31:23;;;;;;;;;13.00;12.00;23.10;34.80;;;;;;111475;1237;54460;-61
2023/04/06 09:33:51;;;;;;;;;15.33;12.67;23.20;34.50;;;;;;111390;1240;49413;-61
2023/04/06 09:36:19;;;;;;;;;15.75;14.50;23.20;35.00;;;;;;111520;1237;49549;-61
2023/04/06 09:38:56;;;;;;;;;17.00;13.00;23.20;34.40;;;;;;111553;1237;45873;-60
2023/04/06 09:41:36;;;;;;;;;14.75;13.75;23.20;34.70;;;;;;111356;1243;55581;-61
2023/04/06 09:44:13;;;;;;;;;18.00;15.00;23.10;35.50;;;;;;111574;1237;54835;-61
2023/04/06 09:46:42;;;;;;;;;15.00;14.00;23.10;34.90;;;;;;111525;1242;49882;-60
2023/04/06 09:49:10;;;;;;;;;13.00;12.00;23.10;34.70;;;;;;111510;1238;49142;-61
2023/04/06 09:51:40;;;;;;;;;14.00;12.00;23.10;34.50;;;;;;111457;1237;46662;-62
2023/04/06 09:54:09;;;;;;;;;15.00;13.75;23.20;34.50;;;;;;111447;1238;55641;-61
2023/04/06 09:56:47;;;;;;;;;15.00;13.50;23.20;34.60;;;;;;111347;1244;53398;-62
2023/04/06 09:59:21;;;;;;;;;13.00;12.00;23.20;34.90;;;;;;111524;1237;49429;-61
2023/04/06 10:01:50;;;;;;;;;13.00;12.00;23.20;34.70;;;;;;111347;1238;49912;-62
2023/04/06 10:04:20;;;;;;;;;13.25;11.75;23.30;34.80;;;;;;111593;1242;45361;-63
2023/04/06 10:06:52;;;;;;;;;15.50;12.50;23.20;35.40;;;;;;111544;1238;56688;-61
2023/04/06 10:09:24;;;;;;;;;14.50;11.75;23.20;35.10;;;;;;111433;1243;53968;-62
2023/04/06 10:11:52;;;;;;;;;13.00;11.75;23.20;35.20;;;;;;111374;1243;49661;-63
2023/04/06 10:14:19;;;;;;;;;15.75;12.75;23.20;35.60;;;;;;111439;1237;49471;-61
2023/04/06 10:16:48;;;;;;;;;14.00;12.33;23.20;35.50;;;;;;111444;1237;46293;-60
2023/04/06 10:19:23;;;;;;;;;12.00;10.75;23.10;35.30;;;;;;111418;1237;55688;-61
2023/04/06 10:21:51;;;;;;;;;17.25;15.25;23.10;35.10;;;;;;111557;1237;54091;-60
2023/04/06 10:24:18;;;;;;;;;15.50;11.75;23.20;35.20;;;;;;111417;1243;49007;-61
2023/04/06 10:26:57;;;;;;;;;15.33;13.67;23.20;35.70;;;;;;111420;1238;49251;-61
2023/04/06 10:29:24;;;;;;;;;14.50;12.00;23.20;35.20;;;;;;111783;1238;46368;-63
2023/04/06 10:31:51;;;;;;;;;17.25;13.75;23.20;35.40;;;;;;111254;1242;55911;-60
2023/04/06 10:34:18;;;;;;;;;13.00;11.00;23.20;35.00;;;;;;111267;1240;53257;-63
2023/04/06 10:36:45;;;;;;;;;15.00;14.00;23.20;35.70;;;;;;111451;1237;49837;-61
2023/04/06 10:39:12;;;;;;;;;13.25;12.00;23.10;35.40;;;;;;111182;1244;49829;-66
2023/04/06 10:41:45;;;;;;;;;12.00;11.00;23.10;35.50;;;;;;111480;1237;45625;-65
2023/04/06 10:44:23;;;;;;;;;17.00;14.50;23.10;35.20;;;;;;111242;1239;55073;-65
2023/04/06 10:47:00;;;;;;;;;11.75;10.75;23.10;35.20;;;;;;111445;1243;55442;-67
2023/04/06 10:49:27;;;;;;;;;12.75;11.75;23.10;34.90;;;;;;111698;1238;49852;-65
2023/04/06 10:51:56;;;;;;;;;15.25;14.00;23.10;35.10;;;;;;111370;1243;50226;-65
2023/04/06 10:54:25;;;;;;;;;14.00;11.00;23.10;35.10;;;;;;111538;1237;46209;-64
2023/04/06 10:56:52;;;;;;;;;13.75;12.00;23.10;35.00;;;;;;111450;1238;56702;-61
2023/04/06 10:59:23;;;;;;;;;14.00;13.00;23.10;34.90;;;;;;111221;1240;53413;-64
2023/04/06 11:01:50;;;;;;;;;17.25;12.75;23.10;34.70;;;;;;111542;1243;48901;-63
2023/04/06 11:04:19;;;;;;;;;13.00;11.75;23.10;34.50;;;;;;111600;1243;49196;-67
2023/04/06 11:06:48;;;;;;;;;14.00;10.67;23.10;34.60;;;;;;111347;1243;46038;-62
2023/04/06 11:09:29;;;;;;;;;13.75;12.75;23.10;34.90;;;;;;111569;1238;55990;-64
2023/04/06 11:11:59;;;;;;;;;15.00;12.00;23.10;35.50;;;;;;111493;1237;53704;-64
2023/04/06 11:14:26;;;;;;;;;13.75;12.00;23.00;35.20;;;;;;111405;1242;49614;-66
2023/04/06 11:16:53;;;;;;;;;16.00;13.75;23.00;34.50;;;;;;111209;1243;49721;-67
2023/04/06 11:19:20;;;;;;;;;15.50;14.25;23.00;34.80;;;;;;111652;1240;46083;-67
2023/04/06 11:21:49;;;;;;;;;13.75;12.75;23.00;34.80;;;;;;111454;1243;56076;-65
2023/04/06 11:24:19;;;;;;;;;15.75;12.75;23.00;34.40;;;;;;111417;1238;54830;-64
2023/04/06 11:26:51;;;;;;;;;14.00;11.67;23.10;34.50;;;;;;111559;1240;51022;-66
2023/04/06 11:29:19;;;;;;;;;16.33;13.67;23.10;34.80;;;;;;111859;1238;49885;-66
2023/04/06 11:31:49;;;;;;;;;16.00;14.25;23.10;34.60;;;;;;111438;1244;46763;-67
2023/04/06 11:34:17;;;;;;;;;14.50;13.50;23.10;34.50;;;;;;111596;1239;55488;-67
2023/04/06 11:36:46;;;;;;;;;14.50;13.00;23.10;34.40;;;;;;111479;1238;54164;-64
2023/04/06 11:39:19;;;;;;;;;14.75;13.50;23.10;34.40;;;;;;111543;1237;50678;-66
2023/04/06 11:41:50;;;;;;;;;14.00;13.00;23.10;34.50;;;;;;111519;1242;49259;-64
2023/04/06 11:44:38;;;;;;;;;13.50;11.25;23.10;34.40;;;;;;111529;1242;46520;-65
2023/04/06 11:47:07;;;;;;;;;13.00;11.33;23.10;34.40;;;;;;111489;1237;56111;-65
2023/04/06 11:49:37;;;;;;;;;13.50;12.00;23.10;34.30;;;;;;111820;1238;53276;-65
2023/04/06 11:52:21;;;;;;;;;12.75;12.00;23.10;34.30;;;;;;111495;1243;49775;-63
2023/04/06 11:54:50;;;;;;;;;12.00;10.75;23.10;34.70;;;;;;111411;1238;49489;-64
2023/04/06 11:57:18;;;;;;;;;14.67;12.00;23.10;34.70;;;;;;111477;1238;45868;-64
2023/04/06 11:59:45;;;;;;;;;13.25;11.75;23.10;34.60;;;;;;111461;1243;55077;-65
2023/04/06 12:02:12;;;;;;;;;13.75;12.00;23.00;34.80;;;;;;111461;1239;54377;-64
2023/04/06 12:04:39;;;;;;;;;14.00;13.00;23.00;34.80;;;;;;111537;1240;49956;-66
2023/04/06 12:07:06;;;;;;;;;11.00;9.75;23.00;34.70;;;;;;111462;1243;49247;-64
2023/04/06 12:09:35;;;;;;;;;12.25;11.00;22.90;34.50;;;;;;111373;1243;46146;-62
2023/04/06 12:12:03;;;;;;;;;15.00;13.00;22.90;34.70;;;;;;111282;1243;55682;-63
2023/04/06 12:14:30;;;;;;;;;14.00;13.00;22.90;34.40;;;;;;111427;1243;53635;-65
2023/04/06 12:16:58;;;;;;;;;12.33;11.33;23.00;34.50;;;;;;111520;1242;49146;-65
2023/04/06 12:19:25;;;;;;;;;14.00;12.75;22.90;34.30;;;;;;111788;1245;49676;-63
2023/04/06 12:21:54;;;;;;;;;13.75;12.75;22.90;34.50;;;;;;111463;1243;45619;-64